createdAt,value
2023-01-20T00:01:48.498Z,3.52
2023-01-20T00:04:25.297Z,3.55
2023-01-20T00:06:52.504Z,3.57
2023-01-20T00:09:24.866Z,3.55
2023-01-20T00:12:03.909Z,3.57
2023-01-20T00:14:36.764Z,3.57
2023-01-20T00:17:15.120Z,3.58
2023-01-20T00:19:57.414Z,3.60
2023-01-20T00:22:24.989Z,3.60
2023-01-20T00:24:57.647Z,3.61
2023-01-20T00:27:38.411Z,3.62
2023-01-20T00:30:13.046Z,3.63
2023-01-20T00:32:45.348Z,3.63
2023-01-20T00:35:21.674Z,3.63
2023-01-20T00:37:57.255Z,3.65
2023-01-20T00:40:24.464Z,3.64
2023-01-20T00:42:51.558Z,3.67
2023-01-20T00:45:21.131Z,3.67
2023-01-20T00:47:53.478Z,3.67
2023-01-20T00:50:20.477Z,3.68
2023-01-20T00:52:49.831Z,3.71
2023-01-20T00:55:16.947Z,3.71
2023-01-20T00:57:47.377Z,3.72
2023-01-20T01:00:14.759Z,3.72
2023-01-20T01:02:47.191Z,3.73
2023-01-20T01:05:14.845Z,3.72
2023-01-20T01:07:42.488Z,3.73
2023-01-20T01:10:12.255Z,3.72
2023-01-20T01:12:39.913Z,3.72
2023-01-20T01:15:07.679Z,3.71
2023-01-20T01:17:35.056Z,3.72
2023-01-20T01:20:02.408Z,3.74
2023-01-20T01:22:31.526Z,3.76
2023-01-20T01:24:58.627Z,3.77
2023-01-20T01:27:25.609Z,3.79
2023-01-20T01:29:52.783Z,3.80
2023-01-20T01:32:20.799Z,3.80
2023-01-20T01:34:52.684Z,3.80
2023-01-20T01:37:19.826Z,3.78
2023-01-20T01:39:46.890Z,3.79
2023-01-20T01:42:14.932Z,3.77
2023-01-20T01:45:00.874Z,3.79
2023-01-20T01:47:30.807Z,3.79
2023-01-20T01:49:57.848Z,3.81
2023-01-20T01:52:25.301Z,3.80
2023-01-20T01:54:53.292Z,3.79
2023-01-20T01:57:20.532Z,3.80
2023-01-20T01:59:47.709Z,3.82
2023-01-20T02:02:15.296Z,3.83
2023-01-20T02:04:44.309Z,3.84
2023-01-20T02:07:16.393Z,3.85
2023-01-20T02:09:43.803Z,3.85
2023-01-20T02:12:15.941Z,3.85
2023-01-20T02:14:49.287Z,3.84
2023-01-20T02:17:16.433Z,3.84
2023-01-20T02:19:43.523Z,3.84
2023-01-20T02:22:16.618Z,3.83
2023-01-20T02:24:58.483Z,3.82
2023-01-20T02:27:28.756Z,3.84
2023-01-20T02:30:11.127Z,3.83
2023-01-20T02:33:05.006Z,3.83
2023-01-20T02:35:32.035Z,3.81
2023-01-20T02:38:15.254Z,3.82
2023-01-20T02:40:50.915Z,3.84
2023-01-20T02:43:35.481Z,3.81
2023-01-20T02:46:14.654Z,3.81
2023-01-20T02:48:44.712Z,3.80
2023-01-20T02:51:18.107Z,3.79
2023-01-20T02:53:49.385Z,3.77
2023-01-20T02:56:17.437Z,3.78
2023-01-20T02:58:47.590Z,3.77
2023-01-20T03:01:19.613Z,3.78
2023-01-20T03:03:50.893Z,3.79
2023-01-20T03:06:20.134Z,3.80
2023-01-20T03:08:49.160Z,3.79
2023-01-20T03:11:16.654Z,3.81
2023-01-20T03:14:02.176Z,3.83
2023-01-20T03:16:33.392Z,3.87
2023-01-20T03:19:00.871Z,3.90
2023-01-20T03:21:28.253Z,3.93
2023-01-20T03:24:00.097Z,3.94
2023-01-20T03:26:27.467Z,3.93
2023-01-20T03:28:54.944Z,3.93
2023-01-20T03:31:30.521Z,3.94
2023-01-20T03:33:59.309Z,3.95
2023-01-20T03:36:34.251Z,3.96
2023-01-20T03:39:01.485Z,3.98
2023-01-20T03:41:37.983Z,4.01
2023-01-20T03:44:14.186Z,4.01
2023-01-20T03:46:47.576Z,4.02
2023-01-20T03:49:14.818Z,4.03
2023-01-20T03:51:58.529Z,4.05
2023-01-20T03:54:28.753Z,4.08
2023-01-20T03:57:05.036Z,4.06
2023-01-20T03:59:37.435Z,4.07
2023-01-20T04:02:08.233Z,4.06
2023-01-20T04:04:38.559Z,4.04
2023-01-20T04:07:07.402Z,4.03
2023-01-20T04:09:55.391Z,4.02
2023-01-20T04:12:29.918Z,4.02
2023-01-20T04:15:08.128Z,4.03
2023-01-20T04:17:45.200Z,4.04
2023-01-20T04:20:13.847Z,4.04
2023-01-20T04:22:52.500Z,4.08
2023-01-20T04:25:28.463Z,4.09
2023-01-20T04:28:04.557Z,4.09
2023-01-20T04:30:42.555Z,4.09
2023-01-20T04:33:09.665Z,4.09
2023-01-20T04:35:38.752Z,4.10
2023-01-20T04:38:06.709Z,4.10
2023-01-20T04:40:33.704Z,4.10
2023-01-20T04:43:01.094Z,4.12
2023-01-20T04:45:36.959Z,4.12
2023-01-20T04:49:13.728Z,4.15
2023-01-20T04:51:48.354Z,4.13
2023-01-20T04:54:24.251Z,4.15
2023-01-20T04:56:54.595Z,4.16
2023-01-20T04:59:21.803Z,4.15
2023-01-20T05:01:48.845Z,4.15
2023-01-20T05:04:17.427Z,4.14
2023-01-20T05:06:53.234Z,4.13
2023-01-20T05:09:32.030Z,4.13
2023-01-20T05:12:01.007Z,4.13
2023-01-20T05:14:38.288Z,4.12
2023-01-20T05:17:06.698Z,4.11
2023-01-20T05:19:42.421Z,4.13
2023-01-20T05:22:10.433Z,4.13
2023-01-20T05:24:38.156Z,4.11
2023-01-20T05:27:05.612Z,4.08
2023-01-20T05:29:46.236Z,4.08
2023-01-20T05:32:13.224Z,4.08
2023-01-20T05:34:45.698Z,4.07
2023-01-20T05:37:35.908Z,4.08
2023-01-20T05:40:12.717Z,4.07
2023-01-20T05:42:40.031Z,4.08
2023-01-20T05:45:42.737Z,4.08
2023-01-20T05:48:11.604Z,4.08
2023-01-20T05:50:44.052Z,4.09
2023-01-20T05:53:11.158Z,4.10
2023-01-20T05:55:39.824Z,4.12
2023-01-20T05:58:12.019Z,4.13
2023-01-20T06:00:49.509Z,4.13
2023-01-20T06:03:17.950Z,4.15
2023-01-20T06:05:54.188Z,4.16
2023-01-20T06:08:21.277Z,4.18
2023-01-20T06:10:59.049Z,4.21
2023-01-20T06:13:40.431Z,4.21
2023-01-20T06:16:17.641Z,4.23
2023-01-20T06:18:54.719Z,4.24
2023-01-20T06:25:04.131Z,4.30
2023-01-20T06:28:07.590Z,4.34
2023-01-20T06:30:49.458Z,4.35
2023-01-20T06:33:22.117Z,4.36
2023-01-20T06:39:07.736Z,4.40
2023-01-20T06:41:48.979Z,4.39
2023-01-20T06:44:19.030Z,4.40
2023-01-20T06:46:49.172Z,4.39
2023-01-20T06:49:31.774Z,4.39
2023-01-20T06:52:06.856Z,4.41
2023-01-20T06:55:00.033Z,4.40
2023-01-20T07:02:01.830Z,4.43
2023-01-20T07:09:38.637Z,4.44
2023-01-20T07:13:54.710Z,4.44
2023-01-20T07:16:52.145Z,4.46
2023-01-20T07:20:22.284Z,4.47
2023-01-20T07:23:16.671Z,4.51
2023-01-20T07:26:33.277Z,4.53
2023-01-20T07:29:40.809Z,4.53
2023-01-20T07:35:37.359Z,4.55
2023-01-20T07:38:16.979Z,4.58
2023-01-20T07:41:17.556Z,4.61
2023-01-20T07:50:32.243Z,4.60
2023-01-20T08:00:56.085Z,4.59
2023-01-20T08:03:27.476Z,4.57
2023-01-20T08:09:40.893Z,4.58
2023-01-20T08:12:27.873Z,4.63
2023-01-20T08:15:29.685Z,4.64
2023-01-20T08:22:12.494Z,4.61
2023-01-20T08:24:51.765Z,4.62
2023-01-20T08:27:30.393Z,4.65
2023-01-20T08:30:21.542Z,4.67
2023-01-20T08:32:51.022Z,4.71
2023-01-20T08:36:09.726Z,4.75
2023-01-20T08:39:06.341Z,4.79
2023-01-20T08:42:58.771Z,4.84
2023-01-20T08:45:30.080Z,4.87
2023-01-20T08:52:07.880Z,4.92
2023-01-20T08:55:09.110Z,4.95
2023-01-20T09:43:24.753Z,5.19
2023-01-20T09:49:12.755Z,5.15
2023-01-20T09:52:29.841Z,5.16
2023-01-20T09:59:15.367Z,5.20
2023-01-20T10:01:53.381Z,5.23
2023-01-20T10:04:41.644Z,5.26
2023-01-20T10:08:05.898Z,5.32
2023-01-20T10:11:10.757Z,5.43
2023-01-20T10:14:28.654Z,5.53
2023-01-20T10:21:33.100Z,5.54
2023-01-20T10:24:35.275Z,5.49
2023-01-20T10:27:04.130Z,5.46
2023-01-20T10:29:36.711Z,5.45
2023-01-20T10:32:10.035Z,5.46
2023-01-20T10:34:44.668Z,5.50
2023-01-20T10:37:15.514Z,5.59
2023-01-20T10:39:49.339Z,5.65
2023-01-20T10:42:28.758Z,5.71
2023-01-20T10:45:20.948Z,5.78
2023-01-20T10:47:55.726Z,5.84
2023-01-20T10:50:38.987Z,5.89
2023-01-20T10:53:35.953Z,5.94
2023-01-20T10:56:45.764Z,5.95
2023-01-20T10:59:37.197Z,5.96
2023-01-20T11:02:20.957Z,5.94
2023-01-20T11:05:07.477Z,5.93
2023-01-20T11:07:38.925Z,5.92
2023-01-20T11:10:16.328Z,5.88
2023-01-20T11:12:50.430Z,5.84
2023-01-20T11:15:29.588Z,5.78
2023-01-20T11:18:16.390Z,5.74
2023-01-20T11:20:51.246Z,5.69
2023-01-20T11:31:23.108Z,5.67
2023-01-20T12:05:52.886Z,5.60
2023-01-20T12:38:25.120Z,5.38
2023-01-20T12:42:51.070Z,5.33
2023-01-20T12:44:48.031Z,5.33
2023-01-20T12:47:28.799Z,5.29
2023-01-20T12:50:34.265Z,5.27
2023-01-20T12:53:50.548Z,5.27
2023-01-20T12:56:29.092Z,5.26
2023-01-20T12:59:31.817Z,5.27
2023-01-20T13:02:20.497Z,5.26
2023-01-20T13:05:38.633Z,5.27
2023-01-20T13:12:40.348Z,5.19
2023-01-20T13:23:14.936Z,4.97
2023-01-20T13:26:31.853Z,4.92
2023-01-20T13:32:00.814Z,4.80
2023-01-20T13:34:42.285Z,4.76
2023-01-20T13:38:10.810Z,4.71
2023-01-20T13:40:49.951Z,4.64
2023-01-20T13:44:13.275Z,4.60
2023-01-20T14:00:22.446Z,4.64
2023-01-20T14:03:26.864Z,4.63
2023-01-20T14:05:59.693Z,4.62
2023-01-20T14:08:43.797Z,4.60
2023-01-20T14:11:14.956Z,4.56
2023-01-20T14:15:06.764Z,4.54
2023-01-20T14:17:55.377Z,4.51
2023-01-20T14:20:33.568Z,4.47
2023-01-20T14:23:36.371Z,4.45
2023-01-20T14:26:08.454Z,4.39
2023-01-20T14:28:57.213Z,4.35
2023-01-20T14:31:24.567Z,4.34
2023-01-20T14:33:57.779Z,4.34
2023-01-20T14:36:28.980Z,4.34
2023-01-20T14:39:04.394Z,4.32
2023-01-20T14:41:54.659Z,4.30
2023-01-20T14:44:30.499Z,4.26
2023-01-20T14:46:58.856Z,4.23
2023-01-20T14:49:41.670Z,4.19
2023-01-20T14:52:35.988Z,4.16
2023-01-20T14:55:06.109Z,4.10
2023-01-20T14:57:47.454Z,4.06
2023-01-20T15:00:25.571Z,4.01
2023-01-20T15:03:21.176Z,3.97
2023-01-20T15:06:00.922Z,3.93
2023-01-20T15:08:35.522Z,3.89
2023-01-20T15:11:12.536Z,3.86
2023-01-20T15:13:46.539Z,3.84
2023-01-20T15:16:14.209Z,3.83
2023-01-20T15:18:45.090Z,3.81
2023-01-20T15:21:26.425Z,3.80
2023-01-20T15:24:30.513Z,3.81
2023-01-20T15:27:00.396Z,3.81
2023-01-20T15:29:44.414Z,3.80
2023-01-20T15:32:16.073Z,3.80
2023-01-20T15:34:47.535Z,3.78
2023-01-20T15:37:29.365Z,3.76
2023-01-20T15:40:13.128Z,3.76
2023-01-20T15:42:42.210Z,3.74
2023-01-20T15:45:15.261Z,3.73
2023-01-20T15:47:52.134Z,3.71
2023-01-20T15:50:31.591Z,3.71
2023-01-20T15:53:14.121Z,3.71
2023-01-20T15:55:51.813Z,3.69
2023-01-20T15:58:29.958Z,3.69
2023-01-20T16:01:03.372Z,3.68
2023-01-20T16:03:38.604Z,3.69
2023-01-20T16:06:30.181Z,3.69
2023-01-20T16:09:48.726Z,3.70
2023-01-20T16:12:42.346Z,3.70
2023-01-20T16:15:16.974Z,3.72
2023-01-20T16:17:46.547Z,3.71
2023-01-20T16:20:40.713Z,3.71
2023-01-20T16:23:10.244Z,3.74
2023-01-20T16:25:40.992Z,3.76
2023-01-20T16:28:26.286Z,3.77
2023-01-20T16:31:00.741Z,3.78
2023-01-20T16:33:30.860Z,3.79
2023-01-20T16:36:01.081Z,3.81
2023-01-20T16:38:32.939Z,3.84
2023-01-20T16:41:08.030Z,3.88
2023-01-20T16:43:36.153Z,3.90
2023-01-20T16:46:03.750Z,3.91
2023-01-20T16:48:38.015Z,3.91
2023-01-20T16:51:06.739Z,3.91
2023-01-20T17:01:40.805Z,3.88
2023-01-20T17:07:21.396Z,3.88
2023-01-20T17:11:02.805Z,3.88
2023-01-20T17:13:33.760Z,3.88
2023-01-20T17:16:10.961Z,3.87
2023-01-20T17:34:16.551Z,3.86
2023-01-20T17:44:16.812Z,3.86
2023-01-20T17:54:20.249Z,3.98
2023-01-20T17:57:07.685Z,3.99
2023-01-20T18:07:21.159Z,3.98
2023-01-20T18:12:09.660Z,4.00
2023-01-20T18:16:59.592Z,4.02
2023-01-20T18:19:34.031Z,4.03
2023-01-20T18:22:16.484Z,4.06
2023-01-20T18:28:11.453Z,4.02
2023-01-20T18:39:04.964Z,3.98
2023-01-20T18:42:28.427Z,3.99
2023-01-20T18:45:04.052Z,4.00
2023-01-20T18:47:35.547Z,4.00
2023-01-20T18:52:56.714Z,4.01
2023-01-20T18:55:25.127Z,4.00
2023-01-20T18:58:12.114Z,4.00
2023-01-20T19:00:40.902Z,4.00
2023-01-20T19:04:33.773Z,4.02
2023-01-20T19:06:49.603Z,4.04
2023-01-20T19:09:49.431Z,4.03
2023-01-20T19:16:15.640Z,4.00
2023-01-20T19:19:05.373Z,3.94
2023-01-20T19:21:58.714Z,3.91
2023-01-20T19:24:29.216Z,3.88
2023-01-20T19:27:00.989Z,3.85
2023-01-20T19:29:34.246Z,3.84
2023-01-20T19:32:06.932Z,3.83
2023-01-20T19:34:48.511Z,3.83
2023-01-20T19:37:32.710Z,3.83
2023-01-20T19:40:07.553Z,3.82
2023-01-20T19:45:59.314Z,3.77
2023-01-20T19:51:50.378Z,3.65
2023-01-20T19:54:42.857Z,3.61
2023-01-20T19:57:22.743Z,3.58
2023-01-20T20:02:47.561Z,3.54
2023-01-20T20:05:59.845Z,3.53
2023-01-20T20:23:44.612Z,3.32
2023-01-20T20:29:20.602Z,3.26
2023-01-20T20:31:53.840Z,3.24
2023-01-20T20:34:35.366Z,3.23
2023-01-20T20:37:11.036Z,3.20
2023-01-20T20:40:15.097Z,3.17
2023-01-20T20:53:00.180Z,3.16
2023-01-20T20:59:58.090Z,3.14
2023-01-20T21:05:19.933Z,3.05
2023-01-20T21:07:55.297Z,3.01
2023-01-20T21:10:26.157Z,2.98
2023-01-20T21:13:27.050Z,2.95
2023-01-20T21:16:03.278Z,2.92
2023-01-20T21:18:47.049Z,2.88
2023-01-20T21:30:35.191Z,2.70
2023-01-20T21:33:20.525Z,2.66
2023-01-20T21:35:54.724Z,2.62
2023-01-20T21:38:26.151Z,2.60
2023-01-20T21:41:01.516Z,2.58
2023-01-20T21:49:48.567Z,2.51
2023-01-20T21:52:39.000Z,2.48
2023-01-20T21:55:12.552Z,2.46
2023-01-20T22:03:47.142Z,2.45
2023-01-20T22:06:44.763Z,2.42
2023-01-20T22:09:13.272Z,2.41
2023-01-20T22:15:25.561Z,2.39
2023-01-20T22:17:54.163Z,2.38
2023-01-20T22:21:05.877Z,2.36
2023-01-20T22:24:07.828Z,2.33
2023-01-20T22:27:05.573Z,2.32
2023-01-20T22:29:47.348Z,2.32
2023-01-20T22:42:25.871Z,2.30
2023-01-20T22:45:03.308Z,2.29
2023-01-20T22:50:29.463Z,2.27
2023-01-20T22:53:03.371Z,2.26
2023-01-20T22:55:48.873Z,2.28
2023-01-20T23:07:12.383Z,2.31
2023-01-20T23:09:39.318Z,2.32
2023-01-20T23:12:46.676Z,2.32
2023-01-20T23:15:13.654Z,2.31
2023-01-20T23:17:50.607Z,2.28
2023-01-20T23:20:30.656Z,2.25
2023-01-20T23:23:20.946Z,2.24
2023-01-20T23:26:00.559Z,2.22
2023-01-20T23:28:28.771Z,2.21
2023-01-20T23:31:02.881Z,2.19
2023-01-20T23:33:52.942Z,2.18
2023-01-20T23:36:30.681Z,2.17
2023-01-20T23:39:25.621Z,2.16
2023-01-20T23:42:41.663Z,2.13
2023-01-20T23:45:08.776Z,2.11
2023-01-20T23:47:46.956Z,2.10
2023-01-20T23:53:05.698Z,2.07
2023-01-20T23:58:35.083Z,2.04
